Map

Track Data

SID SEASON NUMBER BASIN SUBBASIN NAME ISO_TIME NATURE LAT LON WMO_WIND WMO_PRES WMO_AGENCY TRACK_TYPE DIST2LAND LANDFALL IFLAG USA_AGENCY USA_ATCF_ID USA_LAT USA_LON USA_RECORD USA_STATUS USA_WIND USA_PRES USA_SSHS USA_R34_NE USA_R34_SE USA_R34_SW USA_R34_NW USA_R50_NE USA_R50_SE USA_R50_SW USA_R50_NW USA_R64_NE USA_R64_SE USA_R64_SW USA_R64_NW USA_POCI USA_ROCI USA_RMW USA_EYE TOKYO_LAT TOKYO_LON TOKYO_GRADE TOKYO_WIND TOKYO_PRES TOKYO_R50_DIR TOKYO_R50_LONG TOKYO_R50_SHORT TOKYO_R30_DIR TOKYO_R30_LONG TOKYO_R30_SHORT TOKYO_LAND CMA_LAT CMA_LON CMA_CAT CMA_WIND CMA_PRES HKO_LAT HKO_LON HKO_CAT HKO_WIND HKO_PRES NEWDELHI_LAT NEWDELHI_LON NEWDELHI_GRADE NEWDELHI_WIND NEWDELHI_PRES NEWDELHI_CI NEWDELHI_DP NEWDELHI_POCI REUNION_LAT REUNION_LON REUNION_TYPE REUNION_WIND REUNION_PRES REUNION_TNUM REUNION_CI REUNION_RMW REUNION_R34_NE REUNION_R34_SE REUNION_R34_SW REUNION_R34_NW REUNION_R50_NE REUNION_R50_SE REUNION_R50_SW REUNION_R50_NW REUNION_R64_NE REUNION_R64_SE REUNION_R64_SW REUNION_R64_NW BOM_LAT BOM_LON BOM_TYPE BOM_WIND BOM_PRES BOM_TNUM BOM_CI BOM_RMW BOM_R34_NE BOM_R34_SE BOM_R34_SW BOM_R34_NW BOM_R50_NE BOM_R50_SE BOM_R50_SW BOM_R50_NW BOM_R64_NE BOM_R64_SE BOM_R64_SW BOM_R64_NW BOM_ROCI BOM_POCI BOM_EYE BOM_POS_METHOD BOM_PRES_METHOD NADI_LAT NADI_LON NADI_CAT NADI_WIND NADI_PRES WELLINGTON_LAT WELLINGTON_LON WELLINGTON_WIND WELLINGTON_PRES DS824_LAT DS824_LON DS824_STAGE DS824_WIND DS824_PRES TD9636_LAT TD9636_LON TD9636_STAGE TD9636_WIND TD9636_PRES TD9635_LAT TD9635_LON TD9635_WIND TD9635_PRES TD9635_ROCI NEUMANN_LAT NEUMANN_LON NEUMANN_CLASS NEUMANN_WIND NEUMANN_PRES MLC_LAT MLC_LON MLC_CLASS MLC_WIND MLC_PRES USA_GUST BOM_GUST BOM_GUST_PER REUNION_GUST REUNION_GUST_PER USA_SEAHGT USA_SEARAD_NE USA_SEARAD_SE USA_SEARAD_SW USA_SEARAD_NW STORM_SPEED STORM_DIR
1974258N15295 1974 104 NA CS FIFI:ORLENE 1974-09-14 12:00:00 TS 15.3000 -65.0000 30 hurdat_atl main 313 273 O_____________ hurdat_atl AL141974 15.3000 -65.0000 TD 30 -1 15 286
1974258N15295 1974 104 NA CS FIFI:ORLENE 1974-09-14 15:00:00 TS 15.5105 -65.7497 main 273 246 P_____________ AL141974 15.5105 -65.7497 TD 30 -1 15 285
1974258N15295 1974 104 NA CS FIFI:ORLENE 1974-09-14 18:00:00 TS 15.7000 -66.5000 30 hurdat_atl main 248 235 O_____________ hurdat_atl AL141974 15.7000 -66.5000 TD 30 -1 15 283
1974258N15295 1974 104 NA CS FIFI:ORLENE 1974-09-14 21:00:00 TS 15.8572 -67.2502 main 224 222 P_____________ AL141974 15.8572 -67.2502 TD 30 -1 15 282
1974258N15295 1974 104 NA CS FIFI:ORLENE 1974-09-15 00:00:00 TS 16.0000 -68.0000 30 hurdat_atl main 229 229 O_____________ hurdat_atl AL141974 16.0000 -68.0000 TD 30 -1 15 282
1974258N15295 1974 104 NA CS FIFI:ORLENE 1974-09-15 03:00:00 TS 16.1572 -68.7500 main 223 219 P_____________ AL141974 16.1572 -68.7500 TD 30 -1 15 282
1974258N15295 1974 104 NA CS FIFI:ORLENE 1974-09-15 06:00:00 TS 16.3000 -69.5000 30 hurdat_atl main 225 185 O_____________ hurdat_atl AL141974 16.3000 -69.5000 TD 30 -1 15 280
1974258N15295 1974 104 NA CS FIFI:ORLENE 1974-09-15 09:00:00 TS 16.3997 -70.2503 main 178 130 P_____________ AL141974 16.3997 -70.2503 TD 30 -1 15 278
1974258N15295 1974 104 NA CS FIFI:ORLENE 1974-09-15 12:00:00 TS 16.5000 -71.0000 30 hurdat_atl main 130 111 O_____________ hurdat_atl AL141974 16.5000 -71.0000 TD 30 -1 15 280
1974258N15295 1974 104 NA CS FIFI:ORLENE 1974-09-15 15:00:00 TS 16.6497 -71.7499 main 116 109 P_____________ AL141974 16.6497 -71.7499 TD 30 -1 15 282
1974258N15295 1974 104 NA CS FIFI:ORLENE 1974-09-15 18:00:00 TS 16.8000 -72.5000 30 hurdat_atl main 147 134 O_____________ hurdat_atl AL141974 16.8000 -72.5000 TD 30 -1 15 281
1974258N15295 1974 104 NA CS FIFI:ORLENE 1974-09-15 21:00:00 TS 16.9222 -73.2500 main 138 111 P_____________ AL141974 16.9222 -73.2500 TD 30 -1 15 278
1974258N15295 1974 104 NA CS FIFI:ORLENE 1974-09-16 00:00:00 TS 17.0000 -74.0000 30 hurdat_atl main 112 112 O_____________ hurdat_atl AL141974 17.0000 -74.0000 TD 30 -1 14 274
1974258N15295 1974 104 NA CS FIFI:ORLENE 1974-09-16 03:00:00 TS 17.0147 -74.7502 main 147 125 P_____________ AL141974 17.0147 -74.7502 TD 30 -1 14 270
1974258N15295 1974 104 NA CS FIFI:ORLENE 1974-09-16 06:00:00 TS 17.0000 -75.5000 30 hurdat_atl main 125 100 O_____________ hurdat_atl AL141974 17.0000 -75.5000 TD 30 -1 15 269
1974258N15295 1974 104 NA CS FIFI:ORLENE 1974-09-16 09:00:00 TS 17.0002 -76.3025 main 100 81 P_____________ AL141974 17.0002 -76.3025 TD 30 -1 14 270
1974258N15295 1974 104 NA CS FIFI:ORLENE 1974-09-16 12:00:00 TS 17.0000 -77.0000 30 hurdat_atl main 81 78 O_____________ hurdat_atl AL141974 17.0000 -77.0000 TD 30 -1 11 270
1974258N15295 1974 104 NA CS FIFI:ORLENE 1974-09-16 15:00:00 TS 16.9995 -77.4450 main 81 81 P_____________ AL141974 16.9995 -77.4450 TD 32 -1 8 270
1974258N15295 1974 104 NA CS FIFI:ORLENE 1974-09-16 18:00:00 TS 17.0000 -77.8000 35 1005 hurdat_atl main 100 100 O_____________ hurdat_atl AL141974 17.0000 -77.8000 TS 35 1005 0 8 271
1974258N15295 1974 104 NA CS FIFI:ORLENE 1974-09-16 21:00:00 TS 17.0075 -78.2500 main 113 113 P_____________ AL141974 17.0075 -78.2500 TS 42 1002 0 9 270
1974258N15295 1974 104 NA CS FIFI:ORLENE 1974-09-17 00:00:00 TS 17.0000 -78.7000 50 hurdat_atl main 137 137 I_____________ hurdat_atl AL141974 17.0000 -78.7000 TS 50 999 0 8 268
1974258N15295 1974 104 NA CS FIFI:ORLENE 1974-09-17 03:00:00 TS 16.9724 -79.1149 main 153 153 P_____________ AL141974 16.9724 -79.1149 TS 55 996 0 8 263
1974258N15295 1974 104 NA CS FIFI:ORLENE 1974-09-17 06:00:00 TS 16.9000 -79.5000 60 993 hurdat_atl main 186 186 O_____________ hurdat_atl AL141974 16.9000 -79.5000 TS 60 993 0 7 253
1974258N15295 1974 104 NA CS FIFI:ORLENE 1974-09-17 09:00:00 TS 16.7574 -79.8500 main 223 223 P_____________ AL141974 16.7574 -79.8500 TS 65 1 7 246
1974258N15295 1974 104 NA CS FIFI:ORLENE 1974-09-17 12:00:00 TS 16.6000 -80.2000 70 hurdat_atl main 261 261 O_____________ hurdat_atl AL141974 16.6000 -80.2000 HU 70 1 8 249
1974258N15295 1974 104 NA CS FIFI:ORLENE 1974-09-17 15:00:00 TS 16.4850 -80.6000 main 301 274 P_____________ AL141974 16.4850 -80.6000 HU 72 1 8 255
1974258N15295 1974 104 NA CS FIFI:ORLENE 1974-09-17 18:00:00 TS 16.4000 -81.0000 75 hurdat_atl main 274 241 O_____________ hurdat_atl AL141974 16.4000 -81.0000 HU 75 1 7 258
1974258N15295 1974 104 NA CS FIFI:ORLENE 1974-09-17 21:00:00 TS 16.3349 -81.3575 main 233 208 P_____________ AL141974 16.3349 -81.3575 HU 77 1 7 262
1974258N15295 1974 104 NA CS FIFI:ORLENE 1974-09-18 00:00:00 TS 16.3000 -81.7000 80 hurdat_atl main 208 187 O_____________ hurdat_atl AL141974 16.3000 -81.7000 HU 80 1 6 266
1974258N15295 1974 104 NA CS FIFI:ORLENE 1974-09-18 03:00:00 TS 16.2923 -82.0200 main 187 154 P_____________ AL141974 16.2923 -82.0200 HU 82 1 7 270
1974258N15295 1974 104 NA CS FIFI:ORLENE 1974-09-18 06:00:00 TS 16.3000 -82.4000 85 977 hurdat_atl main 154 124 O_____________ hurdat_atl AL141974 16.3000 -82.4000 HU 85 977 2 9 271
1974258N15295 1974 104 NA CS FIFI:ORLENE 1974-09-18 09:00:00 TS 16.3000 -82.9125 main 124 94 P_____________ AL141974 16.3000 -82.9125 HU 87 2 11 270
1974258N15295 1974 104 NA CS FIFI:ORLENE 1974-09-18 12:00:00 TS 16.3000 -83.5000 90 hurdat_atl main 94 59 O_____________ hurdat_atl AL141974 16.3000 -83.5000 HU 90 2 11 270
1974258N15295 1974 104 NA CS FIFI:ORLENE 1974-09-18 15:00:00 TS 16.3075 -84.1074 main 59 44 P_____________ AL141974 16.3075 -84.1074 HU 92 2 12 270
1974258N15295 1974 104 NA CS FIFI:ORLENE 1974-09-18 18:00:00 TS 16.3000 -84.7000 95 hurdat_atl main 44 44 O_____________ hurdat_atl AL141974 16.3000 -84.7000 HU 95 2 11 267
1974258N15295 1974 104 NA CS FIFI:ORLENE 1974-09-18 21:00:00 TS 16.2573 -85.2225 main 44 33 P_____________ AL141974 16.2573 -85.2225 HU 95 2 10 264
1974258N15295 1974 104 NA CS FIFI:ORLENE 1974-09-19 00:00:00 TS 16.2000 -85.7000 95 hurdat_atl main 33 30 O_____________ hurdat_atl AL141974 16.2000 -85.7000 HU 95 2 9 263
1974258N15295 1974 104 NA CS FIFI:ORLENE 1974-09-19 03:00:00 TS 16.1424 -86.1575 main 33 33 P_____________ AL141974 16.1424 -86.1575 HU 95 2 9 263
1974258N15295 1974 104 NA CS FIFI:ORLENE 1974-09-19 06:00:00 TS 16.1000 -86.6000 95 hurdat_atl main 39 33 O_____________ hurdat_atl AL141974 16.1000 -86.6000 HU 95 2 9 266
1974258N15295 1974 104 NA CS FIFI:ORLENE 1974-09-19 09:00:00 TS 16.0775 -87.0650 main 33 33 P_____________ AL141974 16.0775 -87.0650 HU 95 2 9 270
1974258N15295 1974 104 NA CS FIFI:ORLENE 1974-09-19 12:00:00 TS 16.1000 -87.5000 95 971 hurdat_atl main 33 33 O_____________ hurdat_atl AL141974 16.1000 -87.5000 HU 95 971 2 8 277
1974258N15295 1974 104 NA CS FIFI:ORLENE 1974-09-19 15:00:00 TS 16.1697 -87.8426 main 44 30 P_____________ AL141974 16.1697 -87.8426 HU 92 2 7 287
1974258N15295 1974 104 NA CS FIFI:ORLENE 1974-09-19 18:00:00 TS 16.3000 -88.2000 90 hurdat_atl main 30 0 O_____________ hurdat_atl AL141974 16.3000 -88.2000 HU 90 2 9 293
1974258N15295 1974 104 NA NA FIFI:ORLENE 1974-09-19 21:00:00 TS 16.5073 -88.6548 main 0 0 P_____________ AL141974 16.5073 -88.6548 HU 75 1 10 293
1974258N15295 1974 104 NA NA FIFI:ORLENE 1974-09-20 00:00:00 TS 16.7000 -89.2000 60 hurdat_atl main 0 0 O_____________ hurdat_atl AL141974 16.7000 -89.2000 TS 60 0 11 283
1974258N15295 1974 104 NA NA FIFI:ORLENE 1974-09-20 03:00:00 TS 16.7723 -89.8127 main 0 0 P_____________ AL141974 16.7723 -89.8127 TS 60 0 13 275
1974258N15295 1974 104 NA NA FIFI:ORLENE 1974-09-20 06:00:00 TS 16.8000 -90.5000 60 hurdat_atl main 0 0 O_____________ hurdat_atl AL141974 16.8000 -90.5000 TS 60 0 14 273
1974258N15295 1974 104 NA NA FIFI:ORLENE 1974-09-20 09:00:00 TS 16.8499 -91.2350 main 0 0 P_____________ AL141974 16.8499 -91.2350 TS 52 0 14 274
1974258N15295 1974 104 NA NA FIFI:ORLENE 1974-09-20 12:00:00 TS 16.9000 -92.0000 45 hurdat_atl main 0 0 O_____________ hurdat_atl AL141974 16.9000 -92.0000 TS 45 0 15 274
1974258N15295 1974 104 NA NA FIFI:ORLENE 1974-09-20 15:00:00 TS 16.9422 -92.7501 main 0 0 P_____________ AL141974 16.9422 -92.7501 TS 37 0 14 274
1974258N15295 1974 104 NA NA FIFI:ORLENE 1974-09-20 18:00:00 TS 17.0000 -93.5000 30 hurdat_atl main 0 0 O_____________ hurdat_atl AL141974 17.0000 -93.5000 TD 30 -1 14 276
1974258N15295 1974 104 NA NA FIFI:ORLENE 1974-09-20 21:00:00 TS 17.0842 -94.2052 main 0 0 P_____________ AL141974 17.0842 -94.2052 TD 30 -1 24 262
1974258N15295 1974 104 NA NA FIFI:ORLENE 1974-09-21 00:00:00 TS 16.6615 -95.9615 30 hurdat_atl main 0 0 O________OO___ hurdat_atl AL141974 17.2000 -95.0000 TD 30 -1 15.8000 -97.5000 TC 30 15.8000 -97.5000 1 30 27 259
1974258N15295 1974 104 NA NA FIFI:ORLENE 1974-09-21 03:00:00 TS 16.5831 -96.9676 main 0 0 P________PP___ AL141974 17.3653 -96.0196 TD 30 -1 15.9753 -97.7473 TC 30 15.8852 -97.6414 1 32 16 267
1974258N15295 1974 104 NA NA FIFI:ORLENE 1974-09-21 06:00:00 TS 16.5708 -97.6682 30 hurdat_atl main 0 0 O________OP___ hurdat_atl AL141974 17.5000 -97.1000 TD 30 -1 16.1000 -98.0000 TC 30 15.9764 -97.8561 1 35 12 267
1974258N15295 1974 104 NA NA FIFI:ORLENE 1974-09-21 09:00:00 TS 16.5296 -98.2421 main 0 0 P________PP___ AL141974 17.5153 -98.1479 TD 30 -1 16.1493 -98.2954 TC 35 16.0797 -98.2177 1 37 11 270
1974258N15295 1974 104 EP MM FIFI:ORLENE 1974-09-21 12:00:00 TS 16.5714 -98.8572 30 hurdat_atl main 10 0 O________OO___ hurdat_atl AL141974 17.5000 -99.0000 TD 30 -1 16.2000 -98.8000 TC 40 16.2000 -98.8000 2 40 13 277
1974258N15295 1974 104 EP MM FIFI:ORLENE 1974-09-21 15:00:00 TS 16.6808 -99.6025 main 0 0 P________PP___ AL141974 17.5565 -99.4524 TD 30 -1 16.3280 -99.6675 TC 40 16.3408 -99.6428 2 40 15 279
1974258N15295 1974 104 EP MM FIFI:ORLENE 1974-09-21 18:00:00 TS 16.8147 -100.435 30 hurdat_atl main 30 30 O________OP___ hurdat_atl AL141974 17.6000 -99.8000 TD 30 -1 16.5000 -100.700 TC 40 16.5028 -100.647 2 40 17 279
1974258N15295 1974 104 EP MM FIFI:ORLENE 1974-09-21 21:00:00 TS 16.9305 -101.316 main 49 49 P________PP___ AL141974 17.5423 -100.348 TD 32 -1 16.6853 -101.710 TC 40 16.6878 -101.678 2 40 17 279
1974258N15295 1974 104 EP MM FIFI:ORLENE 1974-09-22 00:00:00 TS 17.0714 -102.143 35 hurdat_atl main 79 79 O________OO___ hurdat_atl AL141974 17.5000 -101.000 TS 35 0 16.9000 -102.600 TC 40 16.9000 -102.600 2 40 15 283
1974258N15295 1974 104 EP MM FIFI:ORLENE 1974-09-22 03:00:00 TS 17.2648 -102.796 main 81 81 P________PP___ AL141974 17.5922 -101.705 TS 35 0 17.1343 -103.225 TC 40 17.1320 -103.262 2 40 13 288
1974258N15295 1974 104 EP MM FIFI:ORLENE 1974-09-22 06:00:00 TS 17.4685 -103.438 35 hurdat_atl main 81 81 O________OP___ hurdat_atl AL141974 17.7000 -102.500 TS 35 0 17.4000 -103.700 TC 40 17.3951 -103.795 2 40 13 290
1974258N15295 1974 104 EP MM FIFI:ORLENE 1974-09-22 09:00:00 TS 17.6923 -104.060 main 92 92 P________PP___ AL141974 17.6406 -103.446 TS 35 0 17.6849 -104.188 TC 40 17.6858 -104.231 2 40 12 295
1974258N15295 1974 104 EP MM FIFI:ORLENE 1974-09-22 12:00:00 TS 17.9727 -104.573 35 hurdat_atl main 116 100 O________OO___ hurdat_atl AL141974 17.7000 -104.300 TS 35 0 18.0000 -104.600 TC 40 18.0000 -104.600 2 40 11 308
1974258N15295 1974 104 EP MM FIFI:ORLENE 1974-09-22 15:00:00 TS 18.3411 -104.932 main 100 69 P________PP___ AL141974 18.1469 -104.839 TS 42 0 18.3423 -104.923 TC 45 18.3360 -104.970 2 42 10 320
1974258N15295 1974 104 EP MM FIFI:ORLENE 1974-09-22 18:00:00 TS 18.6984 -105.217 50 hurdat_epa main 69 61 O________OP___ hurdat_epa EP151974 18.7000 -105.200 TS 50 0 18.7000 -105.200 TC 50 18.6918 -105.283 2 45 9 323
1974258N15295 1974 104 EP MM FIFI:ORLENE 1974-09-22 21:00:00 TS 19.0623 -105.517 main 62 61 P________PP___ EP151974 19.0873 -105.530 TS 50 0 19.0650 -105.508 TC 50 19.0518 -105.554 2 47 9 322
1974258N15295 1974 104 EP MM FIFI:ORLENE 1974-09-23 00:00:00 TS 19.4000 -105.800 50 hurdat_epa main 62 62 O________OO___ hurdat_epa EP151974 19.4000 -105.800 TS 50 0 19.4000 -105.800 TC 50 19.4000 -105.800 2 50 8 318
1974258N15295 1974 104 EP MM FIFI:ORLENE 1974-09-23 03:00:00 TS 19.6450 -106.067 main 77 71 P________PP___ EP151974 19.6500 -106.065 TS 50 0 19.6500 -106.065 TC 50 19.6250 -106.072 2 51 7 316
1974258N15295 1974 104 EP MM FIFI:ORLENE 1974-09-23 06:00:00 TS 19.8900 -106.304 50 hurdat_epa main 83 80 O________OP___ hurdat_epa EP151974 19.9000 -106.300 TS 50 0 19.9000 -106.300 TC 50 19.8501 -106.318 2 52 7 321
1974258N15295 1974 104 EP MM FIFI:ORLENE 1974-09-23 09:00:00 TS 20.1640 -106.512 main 86 86 P________PP___ EP151974 20.1675 -106.508 TS 57 0 20.1675 -106.508 TC 52 20.1501 -106.531 2 53 8 332
1974258N15295 1974 104 EP MM FIFI:ORLENE 1974-09-23 12:00:00 TS 20.6000 -106.700 65 hurdat_epa main 106 106 O________OO___ hurdat_epa EP151974 20.6000 -106.700 HU 65 1 20.6000 -106.700 TC 55 20.6000 -106.700 2 55 12 342
1974258N15295 1974 104 EP MM FIFI:ORLENE 1974-09-23 15:00:00 TS 21.3047 -106.914 main 155 135 P________PP___ EP151974 21.3176 -106.937 HU 70 1 21.3176 -106.937 TC 57 21.2530 -106.820 2 61 16 348
1974258N15295 1974 104 EP MM FIFI:ORLENE 1974-09-23 18:00:00 TS 22.1803 -107.069 75 hurdat_epa main 128 74 O________OP___ hurdat_epa EP151974 22.2000 -107.100 HU 75 1 22.2000 -107.100 TC 60 22.0750 -106.902 2 67 18 354
1974258N15295 1974 104 EP MM FIFI:ORLENE 1974-09-23 21:00:00 TS 23.0964 -107.119 main 67 0 P________PP___ EP151974 23.1073 -107.140 HU 82 1 23.1073 -107.140 TC 70 23.0095 -106.957 2 73 18 2
1974258N15295 1974 104 EP MM FIFI:ORLENE 1974-09-24 00:00:00 TS 24.0000 -107.000 90 hurdat_epa main 0 0 O________OO___ hurdat_epa EP151974 24.0000 -107.000 HU 90 2 24.0000 -107.000 TC 80 24.0000 -107.000 4 80 17 12
1974258N15295 1974 104 EP MM FIFI:ORLENE 1974-09-24 03:00:00 TS 24.7719 -106.719 main 0 0 P________P____ EP151974 24.7719 -106.719 HU 57 0 24.7719 -106.719 TC 52 4 17 26
1974258N15295 1974 104 EP MM FIFI:ORLENE 1974-09-24 06:00:00 ET 25.5000 -106.200 25 hurdat_epa main 0 0 O________O____ hurdat_epa EP151974 25.5000 -106.200 ET 25 -4 25.5000 -106.200 25 4 19 38
1974258N15295 1974 104 EP MM FIFI:ORLENE 1974-09-24 09:00:00 ET 26.2441 -105.425 main 0 0 P________P____ EP151974 26.2441 -105.425 ET 25 -4 26.2441 -105.425 25 4 21 45
1974258N15295 1974 104 EP MM FIFI:ORLENE 1974-09-24 12:00:00 ET 27.0000 -104.500 25 hurdat_epa main 0 O________O____ hurdat_epa EP151974 27.0000 -104.500 ET 25 -4 27.0000 -104.500 25 22 47

About IBTrACS Database

This database is a web-friendly format of International Best Track Archive for Climate Stewardship (IBTrACS), a global best track data archive curated by NOAA dating back to 1842.

Updated: 2021-10-21